sensor_id;sensor_type;location;lat;lon;timestamp;P1;durP1;ratioP1;P2;durP2;ratioP2
83328;SDS011;73254;50.882;5.984;2023-12-20T00:01:30;19.13;;;9.13;;
83328;SDS011;73254;50.882;5.984;2023-12-20T00:03:56;18.57;;;8.87;;
83328;SDS011;73254;50.882;5.984;2023-12-20T00:06:21;20.17;;;8.83;;
83328;SDS011;73254;50.882;5.984;2023-12-20T00:08:46;17.73;;;9.27;;
83328;SDS011;73254;50.882;5.984;2023-12-20T00:11:11;19.17;;;9.10;;
83328;SDS011;73254;50.882;5.984;2023-12-20T00:13:36;17.40;;;8.63;;
83328;SDS011;73254;50.882;5.984;2023-12-20T00:16:02;19.50;;;8.07;;
83328;SDS011;73254;50.882;5.984;2023-12-20T00:18:27;15.80;;;7.70;;
83328;SDS011;73254;50.882;5.984;2023-12-20T00:20:52;16.80;;;8.17;;
83328;SDS011;73254;50.882;5.984;2023-12-20T00:23:17;15.27;;;7.73;;
83328;SDS011;73254;50.882;5.984;2023-12-20T00:25:42;13.43;;;7.13;;
83328;SDS011;73254;50.882;5.984;2023-12-20T00:28:08;17.83;;;7.03;;
83328;SDS011;73254;50.882;5.984;2023-12-20T00:30:33;14.50;;;5.67;;
83328;SDS011;73254;50.882;5.984;2023-12-20T00:32:58;14.23;;;5.40;;
83328;SDS011;73254;50.882;5.984;2023-12-20T00:35:23;9.40;;;3.70;;
83328;SDS011;73254;50.882;5.984;2023-12-20T00:37:49;11.00;;;3.22;;
83328;SDS011;73254;50.882;5.984;2023-12-20T00:40:14;8.70;;;3.17;;
83328;SDS011;73254;50.882;5.984;2023-12-20T00:42:39;7.37;;;2.93;;
83328;SDS011;73254;50.882;5.984;2023-12-20T00:45:05;8.97;;;3.17;;
83328;SDS011;73254;50.882;5.984;2023-12-20T00:47:30;9.57;;;2.67;;
83328;SDS011;73254;50.882;5.984;2023-12-20T00:49:56;8.10;;;1.87;;
83328;SDS011;73254;50.882;5.984;2023-12-20T00:52:21;7.87;;;1.83;;
83328;SDS011;73254;50.882;5.984;2023-12-20T00:54:47;7.07;;;1.65;;
83328;SDS011;73254;50.882;5.984;2023-12-20T00:57:13;10.55;;;1.80;;
83328;SDS011;73254;50.882;5.984;2023-12-20T00:59:38;6.93;;;1.57;;
83328;SDS011;73254;50.882;5.984;2023-12-20T01:02:03;5.90;;;1.30;;
83328;SDS011;73254;50.882;5.984;2023-12-20T01:04:29;7.60;;;1.20;;
83328;SDS011;73254;50.882;5.984;2023-12-20T01:06:54;11.43;;;1.37;;
83328;SDS011;73254;50.882;5.984;2023-12-20T01:09:19;6.80;;;1.73;;
83328;SDS011;73254;50.882;5.984;2023-12-20T01:11:44;8.97;;;1.53;;
83328;SDS011;73254;50.882;5.984;2023-12-20T01:14:11;9.35;;;1.50;;
83328;SDS011;73254;50.882;5.984;2023-12-20T01:16:37;7.83;;;1.70;;
83328;SDS011;73254;50.882;5.984;2023-12-20T01:19:02;7.20;;;1.40;;
83328;SDS011;73254;50.882;5.984;2023-12-20T01:21:27;10.07;;;1.47;;
83328;SDS011;73254;50.882;5.984;2023-12-20T01:23:52;7.63;;;1.80;;
83328;SDS011;73254;50.882;5.984;2023-12-20T01:26:17;9.97;;;1.80;;
83328;SDS011;73254;50.882;5.984;2023-12-20T01:28:42;10.17;;;1.87;;
83328;SDS011;73254;50.882;5.984;2023-12-20T01:31:08;9.87;;;1.57;;
83328;SDS011;73254;50.882;5.984;2023-12-20T01:33:33;9.80;;;1.97;;
83328;SDS011;73254;50.882;5.984;2023-12-20T01:36:01;9.68;;;1.77;;
83328;SDS011;73254;50.882;5.984;2023-12-20T01:38:26;11.87;;;2.10;;
83328;SDS011;73254;50.882;5.984;2023-12-20T01:40:52;8.30;;;1.90;;
83328;SDS011;73254;50.882;5.984;2023-12-20T01:43:17;8.90;;;1.50;;
83328;SDS011;73254;50.882;5.984;2023-12-20T01:45:42;8.00;;;2.10;;
83328;SDS011;73254;50.882;5.984;2023-12-20T01:48:08;9.87;;;2.10;;
83328;SDS011;73254;50.882;5.984;2023-12-20T01:50:33;11.13;;;2.15;;
83328;SDS011;73254;50.882;5.984;2023-12-20T01:53:00;9.52;;;2.25;;
83328;SDS011;73254;50.882;5.984;2023-12-20T01:55:27;8.47;;;2.30;;
83328;SDS011;73254;50.882;5.984;2023-12-20T01:57:52;8.75;;;2.17;;
83328;SDS011;73254;50.882;5.984;2023-12-20T02:00:18;12.60;;;2.00;;
83328;SDS011;73254;50.882;5.984;2023-12-20T02:02:45;10.15;;;2.10;;
83328;SDS011;73254;50.882;5.984;2023-12-20T02:05:10;10.13;;;2.13;;
83328;SDS011;73254;50.882;5.984;2023-12-20T02:07:36;10.47;;;2.30;;
83328;SDS011;73254;50.882;5.984;2023-12-20T02:10:01;7.90;;;2.23;;
83328;SDS011;73254;50.882;5.984;2023-12-20T02:12:27;11.18;;;2.00;;
83328;SDS011;73254;50.882;5.984;2023-12-20T02:14:52;9.30;;;2.10;;
83328;SDS011;73254;50.882;5.984;2023-12-20T02:17:19;10.45;;;2.10;;
83328;SDS011;73254;50.882;5.984;2023-12-20T02:19:44;10.53;;;2.00;;
83328;SDS011;73254;50.882;5.984;2023-12-20T02:22:09;6.50;;;1.60;;
83328;SDS011;73254;50.882;5.984;2023-12-20T02:24:35;10.43;;;2.03;;
83328;SDS011;73254;50.882;5.984;2023-12-20T02:27:00;10.33;;;1.70;;
83328;SDS011;73254;50.882;5.984;2023-12-20T02:29:25;9.83;;;1.83;;
83328;SDS011;73254;50.882;5.984;2023-12-20T02:31:51;8.93;;;1.60;;
83328;SDS011;73254;50.882;5.984;2023-12-20T02:34:16;12.97;;;1.97;;
83328;SDS011;73254;50.882;5.984;2023-12-20T02:36:45;8.00;;;1.63;;
83328;SDS011;73254;50.882;5.984;2023-12-20T02:39:10;7.72;;;1.42;;
83328;SDS011;73254;50.882;5.984;2023-12-20T02:41:35;14.67;;;2.27;;
83328;SDS011;73254;50.882;5.984;2023-12-20T02:44:01;11.70;;;2.37;;
83328;SDS011;73254;50.882;5.984;2023-12-20T02:46:26;10.23;;;2.22;;
83328;SDS011;73254;50.882;5.984;2023-12-20T02:48:51;8.80;;;1.90;;
83328;SDS011;73254;50.882;5.984;2023-12-20T02:51:16;9.05;;;2.15;;
83328;SDS011;73254;50.882;5.984;2023-12-20T02:53:42;9.15;;;2.25;;
83328;SDS011;73254;50.882;5.984;2023-12-20T02:56:07;9.47;;;2.20;;
83328;SDS011;73254;50.882;5.984;2023-12-20T02:58:32;10.40;;;2.57;;
83328;SDS011;73254;50.882;5.984;2023-12-20T03:00:57;8.30;;;2.30;;
83328;SDS011;73254;50.882;5.984;2023-12-20T03:03:23;11.10;;;2.30;;
83328;SDS011;73254;50.882;5.984;2023-12-20T03:05:48;9.03;;;2.00;;
83328;SDS011;73254;50.882;5.984;2023-12-20T03:08:13;10.83;;;2.53;;
83328;SDS011;73254;50.882;5.984;2023-12-20T03:10:38;10.70;;;2.27;;
83328;SDS011;73254;50.882;5.984;2023-12-20T03:13:04;9.93;;;2.13;;
83328;SDS011;73254;50.882;5.984;2023-12-20T03:15:29;13.10;;;2.67;;
83328;SDS011;73254;50.882;5.984;2023-12-20T03:17:54;10.53;;;2.53;;
83328;SDS011;73254;50.882;5.984;2023-12-20T03:20:19;10.77;;;2.30;;
83328;SDS011;73254;50.882;5.984;2023-12-20T03:22:44;9.60;;;2.80;;
83328;SDS011;73254;50.882;5.984;2023-12-20T03:25:10;14.50;;;2.60;;
83328;SDS011;73254;50.882;5.984;2023-12-20T03:27:36;12.37;;;2.87;;
83328;SDS011;73254;50.882;5.984;2023-12-20T03:30:02;10.68;;;2.63;;
83328;SDS011;73254;50.882;5.984;2023-12-20T03:32:27;10.47;;;3.00;;
83328;SDS011;73254;50.882;5.984;2023-12-20T03:34:52;11.07;;;2.33;;
83328;SDS011;73254;50.882;5.984;2023-12-20T03:37:17;12.23;;;2.53;;
83328;SDS011;73254;50.882;5.984;2023-12-20T03:39:42;10.90;;;2.50;;
83328;SDS011;73254;50.882;5.984;2023-12-20T03:42:08;10.53;;;2.30;;
83328;SDS011;73254;50.882;5.984;2023-12-20T03:44:33;9.43;;;2.50;;
83328;SDS011;73254;50.882;5.984;2023-12-20T03:46:58;14.87;;;3.00;;
83328;SDS011;73254;50.882;5.984;2023-12-20T03:49:23;9.83;;;2.33;;
83328;SDS011;73254;50.882;5.984;2023-12-20T03:51:49;11.43;;;2.60;;
83328;SDS011;73254;50.882;5.984;2023-12-20T03:54:14;9.30;;;2.13;;
83328;SDS011;73254;50.882;5.984;2023-12-20T03:56:39;7.73;;;2.27;;
83328;SDS011;73254;50.882;5.984;2023-12-20T03:59:04;12.30;;;2.40;;
83328;SDS011;73254;50.882;5.984;2023-12-20T04:01:29;12.50;;;2.17;;
83328;SDS011;73254;50.882;5.984;2023-12-20T04:03:54;14.03;;;2.60;;
83328;SDS011;73254;50.882;5.984;2023-12-20T04:06:20;9.23;;;1.97;;
83328;SDS011;73254;50.882;5.984;2023-12-20T04:08:45;10.37;;;2.60;;
83328;SDS011;73254;50.882;5.984;2023-12-20T04:11:13;10.27;;;2.37;;
83328;SDS011;73254;50.882;5.984;2023-12-20T04:13:38;9.20;;;2.15;;
83328;SDS011;73254;50.882;5.984;2023-12-20T04:16:03;9.03;;;1.80;;
83328;SDS011;73254;50.882;5.984;2023-12-20T04:18:29;12.07;;;2.10;;
83328;SDS011;73254;50.882;5.984;2023-12-20T04:20:54;12.43;;;1.97;;
83328;SDS011;73254;50.882;5.984;2023-12-20T04:23:19;11.50;;;2.27;;
83328;SDS011;73254;50.882;5.984;2023-12-20T04:25:44;7.03;;;1.63;;
83328;SDS011;73254;50.882;5.984;2023-12-20T04:28:10;11.97;;;1.93;;
83328;SDS011;73254;50.882;5.984;2023-12-20T04:30:35;12.00;;;1.83;;
83328;SDS011;73254;50.882;5.984;2023-12-20T04:33:00;8.87;;;2.13;;
83328;SDS011;73254;50.882;5.984;2023-12-20T04:35:25;11.80;;;2.00;;
83328;SDS011;73254;50.882;5.984;2023-12-20T04:37:51;6.75;;;1.80;;
83328;SDS011;73254;50.882;5.984;2023-12-20T04:40:16;13.03;;;2.03;;
83328;SDS011;73254;50.882;5.984;2023-12-20T04:42:41;9.57;;;1.80;;
83328;SDS011;73254;50.882;5.984;2023-12-20T04:45:07;9.77;;;2.10;;
83328;SDS011;73254;50.882;5.984;2023-12-20T04:47:32;11.17;;;2.10;;
83328;SDS011;73254;50.882;5.984;2023-12-20T04:49:57;12.57;;;2.00;;
83328;SDS011;73254;50.882;5.984;2023-12-20T04:52:22;10.17;;;2.07;;
83328;SDS011;73254;50.882;5.984;2023-12-20T04:54:47;10.83;;;2.03;;
83328;SDS011;73254;50.882;5.984;2023-12-20T04:57:13;14.70;;;2.27;;
83328;SDS011;73254;50.882;5.984;2023-12-20T04:59:38;11.87;;;2.07;;
83328;SDS011;73254;50.882;5.984;2023-12-20T05:02:03;11.17;;;2.20;;
83328;SDS011;73254;50.882;5.984;2023-12-20T05:04:28;16.47;;;2.80;;
83328;SDS011;73254;50.882;5.984;2023-12-20T05:06:54;10.43;;;1.97;;
83328;SDS011;73254;50.882;5.984;2023-12-20T05:09:19;9.20;;;1.90;;
83328;SDS011;73254;50.882;5.984;2023-12-20T05:11:44;12.93;;;2.20;;
83328;SDS011;73254;50.882;5.984;2023-12-20T05:14:09;11.03;;;2.27;;
83328;SDS011;73254;50.882;5.984;2023-12-20T05:16:35;9.87;;;1.93;;
83328;SDS011;73254;50.882;5.984;2023-12-20T05:19:00;11.97;;;2.57;;
83328;SDS011;73254;50.882;5.984;2023-12-20T05:21:27;12.73;;;2.13;;
83328;SDS011;73254;50.882;5.984;2023-12-20T05:23:52;9.97;;;2.30;;
83328;SDS011;73254;50.882;5.984;2023-12-20T05:26:17;8.43;;;1.90;;
83328;SDS011;73254;50.882;5.984;2023-12-20T05:28:42;11.60;;;2.43;;
83328;SDS011;73254;50.882;5.984;2023-12-20T05:31:08;9.73;;;2.03;;
83328;SDS011;73254;50.882;5.984;2023-12-20T05:33:34;11.17;;;2.73;;
83328;SDS011;73254;50.882;5.984;2023-12-20T05:35:59;10.07;;;2.10;;
83328;SDS011;73254;50.882;5.984;2023-12-20T05:38:24;12.27;;;2.80;;
83328;SDS011;73254;50.882;5.984;2023-12-20T05:40:49;13.47;;;2.60;;
83328;SDS011;73254;50.882;5.984;2023-12-20T05:43:14;17.17;;;2.50;;
83328;SDS011;73254;50.882;5.984;2023-12-20T05:45:40;12.27;;;2.40;;
83328;SDS011;73254;50.882;5.984;2023-12-20T05:48:05;10.83;;;3.40;;
83328;SDS011;73254;50.882;5.984;2023-12-20T05:50:30;14.30;;;3.30;;
83328;SDS011;73254;50.882;5.984;2023-12-20T05:52:55;13.53;;;2.90;;
83328;SDS011;73254;50.882;5.984;2023-12-20T05:55:21;12.47;;;2.47;;
83328;SDS011;73254;50.882;5.984;2023-12-20T05:57:47;9.70;;;3.00;;
83328;SDS011;73254;50.882;5.984;2023-12-20T06:00:13;13.20;;;2.63;;
83328;SDS011;73254;50.882;5.984;2023-12-20T06:02:38;13.57;;;2.73;;
83328;SDS011;73254;50.882;5.984;2023-12-20T06:05:04;11.97;;;3.10;;
83328;SDS011;73254;50.882;5.984;2023-12-20T06:07:30;9.68;;;2.72;;
83328;SDS011;73254;50.882;5.984;2023-12-20T06:09:55;15.37;;;3.33;;
83328;SDS011;73254;50.882;5.984;2023-12-20T06:12:20;16.00;;;3.37;;
83328;SDS011;73254;50.882;5.984;2023-12-20T06:14:45;13.10;;;3.30;;
83328;SDS011;73254;50.882;5.984;2023-12-20T06:17:11;11.70;;;2.70;;
83328;SDS011;73254;50.882;5.984;2023-12-20T06:19:36;14.60;;;3.37;;
83328;SDS011;73254;50.882;5.984;2023-12-20T06:22:01;11.97;;;3.37;;
83328;SDS011;73254;50.882;5.984;2023-12-20T06:24:26;13.90;;;3.10;;
83328;SDS011;73254;50.882;5.984;2023-12-20T06:26:53;13.88;;;2.65;;
83328;SDS011;73254;50.882;5.984;2023-12-20T06:29:18;11.38;;;2.35;;
83328;SDS011;73254;50.882;5.984;2023-12-20T06:31:43;14.03;;;2.80;;
83328;SDS011;73254;50.882;5.984;2023-12-20T06:34:09;13.37;;;2.87;;
83328;SDS011;73254;50.882;5.984;2023-12-20T06:36:34;14.70;;;2.60;;
83328;SDS011;73254;50.882;5.984;2023-12-20T06:39:00;10.23;;;2.80;;
83328;SDS011;73254;50.882;5.984;2023-12-20T06:41:25;12.40;;;2.60;;
83328;SDS011;73254;50.882;5.984;2023-12-20T06:43:50;12.13;;;2.70;;
83328;SDS011;73254;50.882;5.984;2023-12-20T06:46:16;13.48;;;2.42;;
83328;SDS011;73254;50.882;5.984;2023-12-20T06:48:42;15.87;;;2.90;;
83328;SDS011;73254;50.882;5.984;2023-12-20T06:51:10;15.97;;;2.60;;
83328;SDS011;73254;50.882;5.984;2023-12-20T06:53:36;11.43;;;2.60;;
83328;SDS011;73254;50.882;5.984;2023-12-20T06:56:01;13.90;;;2.90;;
83328;SDS011;73254;50.882;5.984;2023-12-20T06:58:26;14.47;;;3.07;;
83328;SDS011;73254;50.882;5.984;2023-12-20T07:00:51;11.37;;;2.53;;
83328;SDS011;73254;50.882;5.984;2023-12-20T07:03:17;12.13;;;2.90;;
83328;SDS011;73254;50.882;5.984;2023-12-20T07:05:42;8.97;;;2.70;;
83328;SDS011;73254;50.882;5.984;2023-12-20T07:08:07;16.47;;;3.80;;
83328;SDS011;73254;50.882;5.984;2023-12-20T07:10:32;13.27;;;3.10;;
83328;SDS011;73254;50.882;5.984;2023-12-20T07:12:57;17.33;;;3.30;;
83328;SDS011;73254;50.882;5.984;2023-12-20T07:15:23;14.47;;;3.60;;
83328;SDS011;73254;50.882;5.984;2023-12-20T07:17:48;13.43;;;3.40;;
83328;SDS011;73254;50.882;5.984;2023-12-20T07:20:13;8.23;;;3.00;;
83328;SDS011;73254;50.882;5.984;2023-12-20T07:22:38;13.30;;;3.37;;
83328;SDS011;73254;50.882;5.984;2023-12-20T07:25:04;15.40;;;3.37;;
83328;SDS011;73254;50.882;5.984;2023-12-20T07:27:29;9.70;;;3.20;;
83328;SDS011;73254;50.882;5.984;2023-12-20T07:29:54;15.13;;;3.40;;
83328;SDS011;73254;50.882;5.984;2023-12-20T07:32:20;15.00;;;3.87;;
83328;SDS011;73254;50.882;5.984;2023-12-20T07:34:45;13.80;;;3.10;;
83328;SDS011;73254;50.882;5.984;2023-12-20T07:37:10;12.77;;;3.27;;
83328;SDS011;73254;50.882;5.984;2023-12-20T07:39:37;16.95;;;3.47;;
83328;SDS011;73254;50.882;5.984;2023-12-20T07:42:02;12.80;;;3.03;;
83328;SDS011;73254;50.882;5.984;2023-12-20T07:44:27;9.37;;;3.20;;
83328;SDS011;73254;50.882;5.984;2023-12-20T07:46:52;11.60;;;3.10;;
83328;SDS011;73254;50.882;5.984;2023-12-20T07:49:18;13.27;;;3.60;;
83328;SDS011;73254;50.882;5.984;2023-12-20T07:51:43;11.87;;;3.40;;
83328;SDS011;73254;50.882;5.984;2023-12-20T07:54:09;9.47;;;3.23;;
83328;SDS011;73254;50.882;5.984;2023-12-20T07:56:34;16.17;;;3.60;;
83328;SDS011;73254;50.882;5.984;2023-12-20T07:59:02;13.73;;;3.50;;
83328;SDS011;73254;50.882;5.984;2023-12-20T08:01:27;13.25;;;3.40;;
83328;SDS011;73254;50.882;5.984;2023-12-20T08:03:52;14.93;;;3.10;;
83328;SDS011;73254;50.882;5.984;2023-12-20T08:06:18;10.43;;;3.00;;
83328;SDS011;73254;50.882;5.984;2023-12-20T08:08:43;15.40;;;3.03;;
83328;SDS011;73254;50.882;5.984;2023-12-20T08:11:08;11.77;;;2.80;;
83328;SDS011;73254;50.882;5.984;2023-12-20T08:13:33;15.33;;;3.37;;
83328;SDS011;73254;50.882;5.984;2023-12-20T08:15:59;15.87;;;3.10;;
83328;SDS011;73254;50.882;5.984;2023-12-20T08:18:24;13.37;;;3.10;;
83328;SDS011;73254;50.882;5.984;2023-12-20T08:20:49;14.03;;;3.10;;
83328;SDS011;73254;50.882;5.984;2023-12-20T08:23:15;10.50;;;2.73;;
83328;SDS011;73254;50.882;5.984;2023-12-20T08:25:40;14.83;;;3.27;;
83328;SDS011;73254;50.882;5.984;2023-12-20T08:28:05;16.10;;;3.43;;
83328;SDS011;73254;50.882;5.984;2023-12-20T08:30:30;9.93;;;2.97;;
83328;SDS011;73254;50.882;5.984;2023-12-20T08:32:59;14.10;;;3.10;;
83328;SDS011;73254;50.882;5.984;2023-12-20T08:35:24;13.32;;;3.28;;
83328;SDS011;73254;50.882;5.984;2023-12-20T08:37:49;9.43;;;2.90;;
83328;SDS011;73254;50.882;5.984;2023-12-20T08:40:17;13.23;;;3.03;;
83328;SDS011;73254;50.882;5.984;2023-12-20T08:42:42;11.20;;;2.83;;
83328;SDS011;73254;50.882;5.984;2023-12-20T08:45:08;11.00;;;2.57;;
83328;SDS011;73254;50.882;5.984;2023-12-20T08:47:33;11.73;;;3.00;;
83328;SDS011;73254;50.882;5.984;2023-12-20T08:49:58;12.97;;;3.30;;
83328;SDS011;73254;50.882;5.984;2023-12-20T08:52:25;14.07;;;3.33;;
83328;SDS011;73254;50.882;5.984;2023-12-20T08:54:52;5.82;;;2.38;;
83328;SDS011;73254;50.882;5.984;2023-12-20T08:57:19;16.45;;;2.63;;
83328;SDS011;73254;50.882;5.984;2023-12-20T08:59:48;8.32;;;2.58;;
83328;SDS011;73254;50.882;5.984;2023-12-20T09:02:14;9.30;;;2.80;;
83328;SDS011;73254;50.882;5.984;2023-12-20T09:04:39;11.00;;;2.57;;
83328;SDS011;73254;50.882;5.984;2023-12-20T09:07:05;10.60;;;2.70;;
83328;SDS011;73254;50.882;5.984;2023-12-20T09:09:30;10.77;;;2.47;;
83328;SDS011;73254;50.882;5.984;2023-12-20T09:11:57;8.07;;;2.20;;
83328;SDS011;73254;50.882;5.984;2023-12-20T09:14:22;8.67;;;2.40;;
83328;SDS011;73254;50.882;5.984;2023-12-20T09:16:47;11.93;;;2.73;;
83328;SDS011;73254;50.882;5.984;2023-12-20T09:19:12;13.73;;;2.80;;
83328;SDS011;73254;50.882;5.984;2023-12-20T09:21:40;11.32;;;2.50;;
83328;SDS011;73254;50.882;5.984;2023-12-20T09:24:06;7.38;;;2.20;;
83328;SDS011;73254;50.882;5.984;2023-12-20T09:26:31;13.47;;;2.63;;
83328;SDS011;73254;50.882;5.984;2023-12-20T09:28:56;13.10;;;3.13;;
83328;SDS011;73254;50.882;5.984;2023-12-20T09:31:21;9.37;;;2.60;;
83328;SDS011;73254;50.882;5.984;2023-12-20T09:33:47;14.87;;;2.80;;
83328;SDS011;73254;50.882;5.984;2023-12-20T09:36:12;18.03;;;2.77;;
83328;SDS011;73254;50.882;5.984;2023-12-20T09:38:37;12.10;;;2.53;;
83328;SDS011;73254;50.882;5.984;2023-12-20T09:41:03;12.03;;;2.70;;
83328;SDS011;73254;50.882;5.984;2023-12-20T09:43:29;15.07;;;5.07;;
83328;SDS011;73254;50.882;5.984;2023-12-20T09:45:55;17.00;;;5.10;;
83328;SDS011;73254;50.882;5.984;2023-12-20T09:48:24;10.55;;;2.47;;
83328;SDS011;73254;50.882;5.984;2023-12-20T09:50:51;12.10;;;2.10;;
83328;SDS011;73254;50.882;5.984;2023-12-20T09:53:16;19.63;;;3.27;;
83328;SDS011;73254;50.882;5.984;2023-12-20T09:55:42;10.05;;;2.17;;
83328;SDS011;73254;50.882;5.984;2023-12-20T09:58:08;9.87;;;2.33;;
83328;SDS011;73254;50.882;5.984;2023-12-20T10:00:36;9.10;;;2.20;;
83328;SDS011;73254;50.882;5.984;2023-12-20T10:03:01;9.63;;;2.40;;
83328;SDS011;73254;50.882;5.984;2023-12-20T10:05:27;11.18;;;2.35;;
83328;SDS011;73254;50.882;5.984;2023-12-20T10:07:53;8.30;;;2.17;;
83328;SDS011;73254;50.882;5.984;2023-12-20T10:10:18;9.77;;;2.50;;
83328;SDS011;73254;50.882;5.984;2023-12-20T10:15:27;10.15;;;2.60;;
83328;SDS011;73254;50.882;5.984;2023-12-20T10:17:53;8.00;;;1.97;;
83328;SDS011;73254;50.882;5.984;2023-12-20T10:20:19;9.95;;;2.10;;
83328;SDS011;73254;50.882;5.984;2023-12-20T10:22:44;9.60;;;1.90;;
83328;SDS011;73254;50.882;5.984;2023-12-20T10:25:11;9.95;;;2.33;;
83328;SDS011;73254;50.882;5.984;2023-12-20T10:27:36;9.83;;;2.00;;
83328;SDS011;73254;50.882;5.984;2023-12-20T10:30:02;11.57;;;2.20;;
83328;SDS011;73254;50.882;5.984;2023-12-20T10:32:27;12.70;;;2.23;;
83328;SDS011;73254;50.882;5.984;2023-12-20T10:34:53;7.80;;;1.93;;
83328;SDS011;73254;50.882;5.984;2023-12-20T10:37:19;11.55;;;2.08;;
83328;SDS011;73254;50.882;5.984;2023-12-20T10:39:44;13.10;;;2.20;;
83328;SDS011;73254;50.882;5.984;2023-12-20T10:42:12;10.93;;;1.90;;
83328;SDS011;73254;50.882;5.984;2023-12-20T10:44:38;10.73;;;2.15;;
83328;SDS011;73254;50.882;5.984;2023-12-20T10:47:04;8.00;;;2.22;;
83328;SDS011;73254;50.882;5.984;2023-12-20T10:49:29;10.37;;;2.47;;
83328;SDS011;73254;50.882;5.984;2023-12-20T10:51:55;7.80;;;1.93;;
83328;SDS011;73254;50.882;5.984;2023-12-20T10:54:22;9.75;;;1.75;;
83328;SDS011;73254;50.882;5.984;2023-12-20T10:56:47;11.50;;;2.17;;
83328;SDS011;73254;50.882;5.984;2023-12-20T10:59:14;11.57;;;2.53;;
83328;SDS011;73254;50.882;5.984;2023-12-20T11:01:42;10.65;;;2.13;;
83328;SDS011;73254;50.882;5.984;2023-12-20T11:04:08;11.37;;;3.00;;
83328;SDS011;73254;50.882;5.984;2023-12-20T11:14:20;8.30;;;2.40;;
83328;SDS011;73254;50.882;5.984;2023-12-20T11:16:47;10.00;;;2.20;;
83328;SDS011;73254;50.882;5.984;2023-12-20T11:19:12;11.10;;;2.33;;
83328;SDS011;73254;50.882;5.984;2023-12-20T11:21:41;9.07;;;2.40;;
83328;SDS011;73254;50.882;5.984;2023-12-20T11:24:06;11.30;;;2.17;;
83328;SDS011;73254;50.882;5.984;2023-12-20T11:26:31;11.90;;;2.67;;
83328;SDS011;73254;50.882;5.984;2023-12-20T11:31:59;13.48;;;2.53;;
83328;SDS011;73254;50.882;5.984;2023-12-20T11:34:26;11.73;;;2.40;;
83328;SDS011;73254;50.882;5.984;2023-12-20T11:36:56;11.98;;;2.40;;
83328;SDS011;73254;50.882;5.984;2023-12-20T11:39:22;9.90;;;2.60;;
83328;SDS011;73254;50.882;5.984;2023-12-20T11:41:48;10.53;;;2.67;;
83328;SDS011;73254;50.882;5.984;2023-12-20T11:44:14;11.60;;;2.50;;
83328;SDS011;73254;50.882;5.984;2023-12-20T11:46:42;9.93;;;2.28;;
83328;SDS011;73254;50.882;5.984;2023-12-20T11:49:07;13.57;;;2.67;;
83328;SDS011;73254;50.882;5.984;2023-12-20T11:51:32;9.63;;;2.30;;
83328;SDS011;73254;50.882;5.984;2023-12-20T11:53:57;14.17;;;2.53;;
83328;SDS011;73254;50.882;5.984;2023-12-20T11:56:23;11.10;;;3.00;;
83328;SDS011;73254;50.882;5.984;2023-12-20T11:58:48;11.50;;;2.53;;
83328;SDS011;73254;50.882;5.984;2023-12-20T12:01:14;12.43;;;2.70;;
83328;SDS011;73254;50.882;5.984;2023-12-20T12:03:39;12.13;;;2.83;;
83328;SDS011;73254;50.882;5.984;2023-12-20T12:06:04;13.03;;;3.00;;
83328;SDS011;73254;50.882;5.984;2023-12-20T12:08:30;10.43;;;2.73;;
83328;SDS011;73254;50.882;5.984;2023-12-20T12:10:55;12.73;;;2.70;;
83328;SDS011;73254;50.882;5.984;2023-12-20T12:13:20;12.87;;;2.60;;
83328;SDS011;73254;50.882;5.984;2023-12-20T12:15:45;12.03;;;3.27;;
83328;SDS011;73254;50.882;5.984;2023-12-20T12:18:15;13.30;;;2.75;;
83328;SDS011;73254;50.882;5.984;2023-12-20T12:20:40;12.80;;;2.72;;
83328;SDS011;73254;50.882;5.984;2023-12-20T12:23:05;12.60;;;3.03;;
83328;SDS011;73254;50.882;5.984;2023-12-20T12:25:31;12.25;;;2.90;;
83328;SDS011;73254;50.882;5.984;2023-12-20T12:28:00;12.70;;;2.93;;
83328;SDS011;73254;50.882;5.984;2023-12-20T12:30:25;8.52;;;2.80;;
83328;SDS011;73254;50.882;5.984;2023-12-20T12:32:51;9.67;;;2.60;;
83328;SDS011;73254;50.882;5.984;2023-12-20T12:35:17;15.35;;;3.10;;
83328;SDS011;73254;50.882;5.984;2023-12-20T12:37:42;13.83;;;2.97;;
83328;SDS011;73254;50.882;5.984;2023-12-20T12:40:15;11.03;;;3.30;;
83328;SDS011;73254;50.882;5.984;2023-12-20T12:42:40;13.35;;;2.67;;
83328;SDS011;73254;50.882;5.984;2023-12-20T12:45:06;13.35;;;5.50;;
83328;SDS011;73254;50.882;5.984;2023-12-20T12:47:31;13.93;;;6.20;;
83328;SDS011;73254;50.882;5.984;2023-12-20T12:49:56;10.83;;;3.17;;
83328;SDS011;73254;50.882;5.984;2023-12-20T12:52:22;11.80;;;2.90;;
83328;SDS011;73254;50.882;5.984;2023-12-20T12:54:47;9.67;;;2.90;;
83328;SDS011;73254;50.882;5.984;2023-12-20T12:57:13;10.63;;;2.83;;
83328;SDS011;73254;50.882;5.984;2023-12-20T12:59:39;11.70;;;3.23;;
83328;SDS011;73254;50.882;5.984;2023-12-20T13:02:04;11.13;;;3.00;;
83328;SDS011;73254;50.882;5.984;2023-12-20T13:04:29;11.33;;;2.87;;
83328;SDS011;73254;50.882;5.984;2023-12-20T13:06:54;14.87;;;2.83;;
83328;SDS011;73254;50.882;5.984;2023-12-20T13:09:20;12.65;;;2.75;;
83328;SDS011;73254;50.882;5.984;2023-12-20T13:11:45;11.60;;;3.30;;
83328;SDS011;73254;50.882;5.984;2023-12-20T13:14:10;8.30;;;3.40;;
83328;SDS011;73254;50.882;5.984;2023-12-20T13:16:40;12.63;;;3.28;;
83328;SDS011;73254;50.882;5.984;2023-12-20T13:19:05;11.37;;;2.77;;
83328;SDS011;73254;50.882;5.984;2023-12-20T13:21:30;12.87;;;2.90;;
83328;SDS011;73254;50.882;5.984;2023-12-20T13:23:56;8.57;;;2.50;;
83328;SDS011;73254;50.882;5.984;2023-12-20T13:26:21;14.30;;;3.23;;
83328;SDS011;73254;50.882;5.984;2023-12-20T13:28:46;12.67;;;2.77;;
83328;SDS011;73254;50.882;5.984;2023-12-20T13:31:11;10.37;;;2.53;;
83328;SDS011;73254;50.882;5.984;2023-12-20T13:33:37;10.57;;;2.73;;
83328;SDS011;73254;50.882;5.984;2023-12-20T13:36:02;13.25;;;2.53;;
83328;SDS011;73254;50.882;5.984;2023-12-20T13:38:29;11.97;;;2.90;;
83328;SDS011;73254;50.882;5.984;2023-12-20T13:40:54;12.20;;;2.83;;
83328;SDS011;73254;50.882;5.984;2023-12-20T13:43:19;12.03;;;2.53;;
83328;SDS011;73254;50.882;5.984;2023-12-20T13:45:46;12.02;;;2.80;;
83328;SDS011;73254;50.882;5.984;2023-12-20T13:48:12;12.75;;;2.70;;
83328;SDS011;73254;50.882;5.984;2023-12-20T13:50:37;11.73;;;3.40;;
83328;SDS011;73254;50.882;5.984;2023-12-20T13:53:05;9.93;;;2.83;;
83328;SDS011;73254;50.882;5.984;2023-12-20T13:55:30;10.27;;;2.88;;
83328;SDS011;73254;50.882;5.984;2023-12-20T13:57:56;7.50;;;2.50;;
83328;SDS011;73254;50.882;5.984;2023-12-20T14:00:21;9.40;;;2.80;;
83328;SDS011;73254;50.882;5.984;2023-12-20T14:02:47;10.20;;;2.80;;
83328;SDS011;73254;50.882;5.984;2023-12-20T14:05:12;10.75;;;2.75;;
83328;SDS011;73254;50.882;5.984;2023-12-20T14:07:39;13.45;;;3.45;;
83328;SDS011;73254;50.882;5.984;2023-12-20T14:10:04;16.20;;;3.50;;
83328;SDS011;73254;50.882;5.984;2023-12-20T14:12:30;12.48;;;2.88;;
83328;SDS011;73254;50.882;5.984;2023-12-20T14:14:57;10.90;;;2.60;;
83328;SDS011;73254;50.882;5.984;2023-12-20T14:17:22;10.47;;;2.90;;
83328;SDS011;73254;50.882;5.984;2023-12-20T14:19:47;12.63;;;2.90;;
83328;SDS011;73254;50.882;5.984;2023-12-20T14:22:12;9.67;;;3.00;;
83328;SDS011;73254;50.882;5.984;2023-12-20T14:24:41;13.05;;;2.88;;
83328;SDS011;73254;50.882;5.984;2023-12-20T14:27:06;10.67;;;2.67;;
83328;SDS011;73254;50.882;5.984;2023-12-20T14:29:32;15.57;;;3.10;;
83328;SDS011;73254;50.882;5.984;2023-12-20T14:31:57;9.97;;;3.20;;
83328;SDS011;73254;50.882;5.984;2023-12-20T14:34:22;11.57;;;3.23;;
83328;SDS011;73254;50.882;5.984;2023-12-20T14:36:49;11.85;;;3.15;;
83328;SDS011;73254;50.882;5.984;2023-12-20T14:39:14;9.80;;;2.97;;
83328;SDS011;73254;50.882;5.984;2023-12-20T14:41:39;10.80;;;3.23;;